sensor_id;sensor_type;location;lat;lon;timestamp;P1;durP1;ratioP1;P2;durP2;ratioP2
42066;SDS011;27734;47.028;28.820;2024-02-26T00:01:48;24.70;;;7.40;;
42066;SDS011;27734;47.028;28.820;2024-02-26T00:04:20;22.13;;;7.03;;
42066;SDS011;27734;47.028;28.820;2024-02-26T00:06:51;26.33;;;6.90;;
42066;SDS011;27734;47.028;28.820;2024-02-26T00:09:24;18.03;;;6.53;;
42066;SDS011;27734;47.028;28.820;2024-02-26T00:11:55;23.60;;;7.10;;
42066;SDS011;27734;47.028;28.820;2024-02-26T00:14:27;21.10;;;6.83;;
42066;SDS011;27734;47.028;28.820;2024-02-26T00:16:58;28.13;;;7.17;;
42066;SDS011;27734;47.028;28.820;2024-02-26T00:19:30;21.73;;;6.50;;
42066;SDS011;27734;47.028;28.820;2024-02-26T00:22:02;23.93;;;6.70;;
42066;SDS011;27734;47.028;28.820;2024-02-26T00:24:33;22.40;;;6.65;;
42066;SDS011;27734;47.028;28.820;2024-02-26T00:27:04;17.75;;;5.80;;
42066;SDS011;27734;47.028;28.820;2024-02-26T00:29:35;21.23;;;6.10;;
42066;SDS011;27734;47.028;28.820;2024-02-26T00:32:06;19.77;;;6.13;;
42066;SDS011;27734;47.028;28.820;2024-02-26T00:34:38;20.75;;;6.15;;
42066;SDS011;27734;47.028;28.820;2024-02-26T00:37:09;19.53;;;6.53;;
42066;SDS011;27734;47.028;28.820;2024-02-26T00:39:40;19.15;;;6.20;;
42066;SDS011;27734;47.028;28.820;2024-02-26T00:42:12;20.45;;;6.80;;
42066;SDS011;27734;47.028;28.820;2024-02-26T00:44:44;18.07;;;5.83;;
42066;SDS011;27734;47.028;28.820;2024-02-26T00:47:16;19.83;;;7.00;;
42066;SDS011;27734;47.028;28.820;2024-02-26T00:49:47;21.60;;;6.50;;
42066;SDS011;27734;47.028;28.820;2024-02-26T00:52:18;21.03;;;6.13;;
42066;SDS011;27734;47.028;28.820;2024-02-26T00:54:50;27.53;;;7.00;;
42066;SDS011;27734;47.028;28.820;2024-02-26T00:57:21;24.17;;;6.30;;
42066;SDS011;27734;47.028;28.820;2024-02-26T00:59:52;21.27;;;6.73;;
42066;SDS011;27734;47.028;28.820;2024-02-26T01:02:24;22.63;;;6.87;;
42066;SDS011;27734;47.028;28.820;2024-02-26T01:04:55;19.90;;;6.27;;
42066;SDS011;27734;47.028;28.820;2024-02-26T01:07:27;22.67;;;6.90;;
42066;SDS011;27734;47.028;28.820;2024-02-26T01:10:01;19.03;;;6.80;;
42066;SDS011;27734;47.028;28.820;2024-02-26T01:12:34;19.98;;;6.97;;
42066;SDS011;27734;47.028;28.820;2024-02-26T01:15:07;15.77;;;6.00;;
42066;SDS011;27734;47.028;28.820;2024-02-26T01:17:39;24.47;;;7.17;;
42066;SDS011;27734;47.028;28.820;2024-02-26T01:20:10;19.47;;;6.37;;
42066;SDS011;27734;47.028;28.820;2024-02-26T01:22:42;20.43;;;6.13;;
42066;SDS011;27734;47.028;28.820;2024-02-26T01:25:13;18.17;;;5.90;;
42066;SDS011;27734;47.028;28.820;2024-02-26T01:27:45;19.93;;;6.50;;
42066;SDS011;27734;47.028;28.820;2024-02-26T01:30:19;24.82;;;6.83;;
42066;SDS011;27734;47.028;28.820;2024-02-26T01:32:50;20.77;;;6.77;;
42066;SDS011;27734;47.028;28.820;2024-02-26T01:35:21;20.27;;;6.60;;
42066;SDS011;27734;47.028;28.820;2024-02-26T01:37:53;21.80;;;6.70;;
42066;SDS011;27734;47.028;28.820;2024-02-26T01:40:24;24.57;;;7.07;;
42066;SDS011;27734;47.028;28.820;2024-02-26T01:42:58;23.80;;;6.62;;
42066;SDS011;27734;47.028;28.820;2024-02-26T01:45:29;21.13;;;6.30;;
42066;SDS011;27734;47.028;28.820;2024-02-26T01:48:01;22.43;;;6.87;;
42066;SDS011;27734;47.028;28.820;2024-02-26T01:50:32;19.87;;;6.43;;
42066;SDS011;27734;47.028;28.820;2024-02-26T01:53:06;21.97;;;6.77;;
42066;SDS011;27734;47.028;28.820;2024-02-26T01:55:38;26.30;;;6.95;;
42066;SDS011;27734;47.028;28.820;2024-02-26T01:58:10;22.33;;;6.83;;
42066;SDS011;27734;47.028;28.820;2024-02-26T02:00:42;24.53;;;6.93;;
42066;SDS011;27734;47.028;28.820;2024-02-26T02:03:14;24.63;;;7.13;;
42066;SDS011;27734;47.028;28.820;2024-02-26T02:05:45;22.63;;;6.87;;
42066;SDS011;27734;47.028;28.820;2024-02-26T02:08:17;22.93;;;7.17;;
42066;SDS011;27734;47.028;28.820;2024-02-26T02:10:48;23.87;;;7.10;;
42066;SDS011;27734;47.028;28.820;2024-02-26T02:13:19;22.93;;;6.40;;
42066;SDS011;27734;47.028;28.820;2024-02-26T02:15:51;19.10;;;6.40;;
42066;SDS011;27734;47.028;28.820;2024-02-26T02:18:22;27.87;;;6.40;;
42066;SDS011;27734;47.028;28.820;2024-02-26T02:20:54;26.07;;;6.63;;
42066;SDS011;27734;47.028;28.820;2024-02-26T02:23:27;18.30;;;6.53;;
42066;SDS011;27734;47.028;28.820;2024-02-26T02:25:58;20.10;;;6.23;;
42066;SDS011;27734;47.028;28.820;2024-02-26T02:28:30;18.93;;;6.50;;
42066;SDS011;27734;47.028;28.820;2024-02-26T02:31:01;19.00;;;6.80;;
42066;SDS011;27734;47.028;28.820;2024-02-26T02:33:33;19.13;;;6.43;;
42066;SDS011;27734;47.028;28.820;2024-02-26T02:36:05;22.50;;;6.40;;
42066;SDS011;27734;47.028;28.820;2024-02-26T02:38:38;22.70;;;6.40;;
42066;SDS011;27734;47.028;28.820;2024-02-26T02:41:19;22.13;;;6.47;;
42066;SDS011;27734;47.028;28.820;2024-02-26T02:43:50;21.73;;;6.13;;
42066;SDS011;27734;47.028;28.820;2024-02-26T02:46:21;25.13;;;6.93;;
42066;SDS011;27734;47.028;28.820;2024-02-26T02:48:53;21.70;;;6.90;;
42066;SDS011;27734;47.028;28.820;2024-02-26T02:51:24;22.90;;;6.90;;
42066;SDS011;27734;47.028;28.820;2024-02-26T02:53:55;21.63;;;7.00;;
42066;SDS011;27734;47.028;28.820;2024-02-26T02:56:27;21.77;;;7.27;;
42066;SDS011;27734;47.028;28.820;2024-02-26T02:58:58;22.43;;;6.97;;
42066;SDS011;27734;47.028;28.820;2024-02-26T03:01:29;24.53;;;7.43;;
42066;SDS011;27734;47.028;28.820;2024-02-26T03:04:01;26.03;;;7.40;;
42066;SDS011;27734;47.028;28.820;2024-02-26T03:06:32;21.07;;;6.87;;
42066;SDS011;27734;47.028;28.820;2024-02-26T03:09:03;22.43;;;7.00;;
42066;SDS011;27734;47.028;28.820;2024-02-26T03:11:34;22.57;;;7.60;;
42066;SDS011;27734;47.028;28.820;2024-02-26T03:14:07;19.63;;;6.73;;
42066;SDS011;27734;47.028;28.820;2024-02-26T03:16:38;25.63;;;7.50;;
42066;SDS011;27734;47.028;28.820;2024-02-26T03:19:10;20.87;;;6.80;;
42066;SDS011;27734;47.028;28.820;2024-02-26T03:21:43;20.97;;;6.33;;
42066;SDS011;27734;47.028;28.820;2024-02-26T03:24:14;23.63;;;7.53;;
42066;SDS011;27734;47.028;28.820;2024-02-26T03:26:45;25.00;;;7.37;;
42066;SDS011;27734;47.028;28.820;2024-02-26T03:29:16;24.03;;;8.10;;
42066;SDS011;27734;47.028;28.820;2024-02-26T03:31:48;26.03;;;7.77;;
42066;SDS011;27734;47.028;28.820;2024-02-26T03:34:19;21.13;;;7.43;;
42066;SDS011;27734;47.028;28.820;2024-02-26T03:36:50;26.43;;;8.77;;
42066;SDS011;27734;47.028;28.820;2024-02-26T03:39:21;27.90;;;8.60;;
42066;SDS011;27734;47.028;28.820;2024-02-26T03:41:52;25.55;;;8.40;;
42066;SDS011;27734;47.028;28.820;2024-02-26T03:44:23;26.53;;;8.27;;
42066;SDS011;27734;47.028;28.820;2024-02-26T03:46:54;21.30;;;7.53;;
42066;SDS011;27734;47.028;28.820;2024-02-26T03:49:25;27.23;;;8.53;;
42066;SDS011;27734;47.028;28.820;2024-02-26T03:51:57;23.17;;;7.93;;
42066;SDS011;27734;47.028;28.820;2024-02-26T03:54:28;22.80;;;7.93;;
42066;SDS011;27734;47.028;28.820;2024-02-26T03:56:59;26.60;;;8.60;;
42066;SDS011;27734;47.028;28.820;2024-02-26T03:59:30;26.73;;;8.40;;
42066;SDS011;27734;47.028;28.820;2024-02-26T04:02:04;29.45;;;8.80;;
42066;SDS011;27734;47.028;28.820;2024-02-26T04:04:35;30.00;;;8.30;;
42066;SDS011;27734;47.028;28.820;2024-02-26T04:07:07;28.03;;;8.63;;
42066;SDS011;27734;47.028;28.820;2024-02-26T04:09:39;25.33;;;7.87;;
42066;SDS011;27734;47.028;28.820;2024-02-26T04:12:11;28.50;;;8.67;;
42066;SDS011;27734;47.028;28.820;2024-02-26T04:14:42;23.63;;;8.20;;
42066;SDS011;27734;47.028;28.820;2024-02-26T04:17:13;22.40;;;7.90;;
42066;SDS011;27734;47.028;28.820;2024-02-26T04:19:45;26.77;;;8.87;;
42066;SDS011;27734;47.028;28.820;2024-02-26T04:22:16;26.97;;;8.73;;
42066;SDS011;27734;47.028;28.820;2024-02-26T04:24:47;24.63;;;7.97;;
42066;SDS011;27734;47.028;28.820;2024-02-26T04:27:18;23.07;;;8.20;;
42066;SDS011;27734;47.028;28.820;2024-02-26T04:29:49;25.40;;;8.20;;
42066;SDS011;27734;47.028;28.820;2024-02-26T04:32:23;32.30;;;9.27;;
42066;SDS011;27734;47.028;28.820;2024-02-26T04:34:56;23.95;;;8.80;;
42066;SDS011;27734;47.028;28.820;2024-02-26T04:37:27;26.27;;;7.93;;
42066;SDS011;27734;47.028;28.820;2024-02-26T04:40:00;25.30;;;9.30;;
42066;SDS011;27734;47.028;28.820;2024-02-26T04:42:32;23.98;;;8.35;;
42066;SDS011;27734;47.028;28.820;2024-02-26T04:45:04;26.57;;;9.37;;
42066;SDS011;27734;47.028;28.820;2024-02-26T04:47:36;28.35;;;9.40;;
42066;SDS011;27734;47.028;28.820;2024-02-26T04:50:08;22.95;;;8.40;;
42066;SDS011;27734;47.028;28.820;2024-02-26T04:52:39;27.87;;;9.17;;
42066;SDS011;27734;47.028;28.820;2024-02-26T04:55:10;33.17;;;10.43;;
42066;SDS011;27734;47.028;28.820;2024-02-26T04:57:42;26.00;;;9.05;;
42066;SDS011;27734;47.028;28.820;2024-02-26T05:00:14;28.57;;;9.43;;
42066;SDS011;27734;47.028;28.820;2024-02-26T05:02:46;27.40;;;9.17;;
42066;SDS011;27734;47.028;28.820;2024-02-26T05:05:17;31.10;;;10.75;;
42066;SDS011;27734;47.028;28.820;2024-02-26T05:07:49;29.25;;;9.40;;
42066;SDS011;27734;47.028;28.820;2024-02-26T05:10:20;33.00;;;9.57;;
42066;SDS011;27734;47.028;28.820;2024-02-26T05:12:51;28.33;;;10.07;;
42066;SDS011;27734;47.028;28.820;2024-02-26T05:15:23;25.07;;;9.50;;
42066;SDS011;27734;47.028;28.820;2024-02-26T05:17:54;30.53;;;9.30;;
42066;SDS011;27734;47.028;28.820;2024-02-26T05:20:25;26.57;;;9.90;;
42066;SDS011;27734;47.028;28.820;2024-02-26T05:22:57;26.27;;;10.00;;
42066;SDS011;27734;47.028;28.820;2024-02-26T05:25:28;27.80;;;9.30;;
42066;SDS011;27734;47.028;28.820;2024-02-26T05:27:59;30.30;;;9.80;;
42066;SDS011;27734;47.028;28.820;2024-02-26T05:30:30;25.00;;;9.33;;
42066;SDS011;27734;47.028;28.820;2024-02-26T05:33:02;26.50;;;9.43;;
42066;SDS011;27734;47.028;28.820;2024-02-26T05:35:33;29.93;;;9.87;;
42066;SDS011;27734;47.028;28.820;2024-02-26T05:38:04;26.90;;;10.27;;
42066;SDS011;27734;47.028;28.820;2024-02-26T05:40:36;32.07;;;10.57;;
42066;SDS011;27734;47.028;28.820;2024-02-26T05:43:07;30.17;;;9.73;;
42066;SDS011;27734;47.028;28.820;2024-02-26T05:45:38;31.37;;;10.20;;
42066;SDS011;27734;47.028;28.820;2024-02-26T05:48:09;29.33;;;9.90;;
42066;SDS011;27734;47.028;28.820;2024-02-26T05:50:41;32.57;;;10.57;;
42066;SDS011;27734;47.028;28.820;2024-02-26T05:53:12;27.27;;;9.57;;
42066;SDS011;27734;47.028;28.820;2024-02-26T05:55:44;28.00;;;10.53;;
42066;SDS011;27734;47.028;28.820;2024-02-26T05:58:15;29.53;;;9.87;;
42066;SDS011;27734;47.028;28.820;2024-02-26T06:00:46;30.97;;;11.07;;
42066;SDS011;27734;47.028;28.820;2024-02-26T06:03:17;27.90;;;10.73;;
42066;SDS011;27734;47.028;28.820;2024-02-26T06:05:49;28.45;;;9.80;;
42066;SDS011;27734;47.028;28.820;2024-02-26T06:08:20;28.67;;;11.23;;
42066;SDS011;27734;47.028;28.820;2024-02-26T06:10:51;31.00;;;11.00;;
42066;SDS011;27734;47.028;28.820;2024-02-26T06:13:22;28.90;;;10.13;;
42066;SDS011;27734;47.028;28.820;2024-02-26T06:15:54;24.90;;;10.03;;
42066;SDS011;27734;47.028;28.820;2024-02-26T06:18:25;32.40;;;10.93;;
42066;SDS011;27734;47.028;28.820;2024-02-26T06:20:56;27.13;;;10.23;;
42066;SDS011;27734;47.028;28.820;2024-02-26T06:23:27;27.27;;;10.57;;
42066;SDS011;27734;47.028;28.820;2024-02-26T06:25:58;29.90;;;11.33;;
42066;SDS011;27734;47.028;28.820;2024-02-26T06:28:30;29.73;;;10.60;;
42066;SDS011;27734;47.028;28.820;2024-02-26T06:31:02;31.43;;;11.33;;
42066;SDS011;27734;47.028;28.820;2024-02-26T06:33:33;30.07;;;10.67;;
42066;SDS011;27734;47.028;28.820;2024-02-26T06:36:05;31.60;;;11.83;;
42066;SDS011;27734;47.028;28.820;2024-02-26T06:38:36;28.70;;;11.33;;
42066;SDS011;27734;47.028;28.820;2024-02-26T06:41:08;30.37;;;10.83;;
42066;SDS011;27734;47.028;28.820;2024-02-26T06:43:39;32.67;;;11.03;;
42066;SDS011;27734;47.028;28.820;2024-02-26T06:46:11;32.83;;;10.27;;
42066;SDS011;27734;47.028;28.820;2024-02-26T06:48:45;31.20;;;10.67;;
42066;SDS011;27734;47.028;28.820;2024-02-26T06:51:17;28.17;;;9.27;;
42066;SDS011;27734;47.028;28.820;2024-02-26T06:53:49;31.03;;;10.13;;
42066;SDS011;27734;47.028;28.820;2024-02-26T06:56:20;28.90;;;10.37;;
42066;SDS011;27734;47.028;28.820;2024-02-26T06:58:51;26.37;;;10.40;;
42066;SDS011;27734;47.028;28.820;2024-02-26T07:01:23;25.90;;;10.37;;
42066;SDS011;27734;47.028;28.820;2024-02-26T07:03:54;23.57;;;9.97;;
42066;SDS011;27734;47.028;28.820;2024-02-26T07:06:26;27.97;;;9.53;;
42066;SDS011;27734;47.028;28.820;2024-02-26T07:08:57;29.23;;;11.43;;
42066;SDS011;27734;47.028;28.820;2024-02-26T07:11:29;25.30;;;10.00;;
42066;SDS011;27734;47.028;28.820;2024-02-26T07:14:00;27.00;;;10.23;;
42066;SDS011;27734;47.028;28.820;2024-02-26T07:16:31;29.03;;;10.20;;
42066;SDS011;27734;47.028;28.820;2024-02-26T07:19:03;29.70;;;9.85;;
42066;SDS011;27734;47.028;28.820;2024-02-26T07:21:34;27.30;;;9.63;;
42066;SDS011;27734;47.028;28.820;2024-02-26T07:24:05;29.30;;;9.93;;
42066;SDS011;27734;47.028;28.820;2024-02-26T07:26:40;23.63;;;8.93;;
42066;SDS011;27734;47.028;28.820;2024-02-26T07:29:11;25.23;;;8.80;;
42066;SDS011;27734;47.028;28.820;2024-02-26T07:31:42;25.90;;;9.30;;
42066;SDS011;27734;47.028;28.820;2024-02-26T07:34:13;26.87;;;9.23;;
42066;SDS011;27734;47.028;28.820;2024-02-26T07:36:45;23.47;;;8.43;;
42066;SDS011;27734;47.028;28.820;2024-02-26T07:39:17;24.93;;;9.30;;
42066;SDS011;27734;47.028;28.820;2024-02-26T07:41:48;24.00;;;9.17;;
42066;SDS011;27734;47.028;28.820;2024-02-26T07:44:21;21.13;;;7.80;;
42066;SDS011;27734;47.028;28.820;2024-02-26T07:46:52;24.43;;;9.30;;
42066;SDS011;27734;47.028;28.820;2024-02-26T07:49:23;23.83;;;8.97;;
42066;SDS011;27734;47.028;28.820;2024-02-26T07:51:56;26.23;;;9.23;;
42066;SDS011;27734;47.028;28.820;2024-02-26T07:54:30;22.27;;;9.17;;
42066;SDS011;27734;47.028;28.820;2024-02-26T07:57:01;25.73;;;8.57;;
42066;SDS011;27734;47.028;28.820;2024-02-26T07:59:34;27.57;;;9.00;;
42066;SDS011;27734;47.028;28.820;2024-02-26T08:02:05;24.53;;;8.80;;
42066;SDS011;27734;47.028;28.820;2024-02-26T08:04:40;23.77;;;9.00;;
42066;SDS011;27734;47.028;28.820;2024-02-26T08:09:41;27.00;;;8.77;;
42066;SDS011;27734;47.028;28.820;2024-02-26T08:12:14;24.65;;;9.03;;
42066;SDS011;27734;47.028;28.820;2024-02-26T08:14:46;27.27;;;10.00;;
42066;SDS011;27734;47.028;28.820;2024-02-26T08:17:17;23.57;;;9.37;;
42066;SDS011;27734;47.028;28.820;2024-02-26T08:19:48;23.77;;;8.60;;
42066;SDS011;27734;47.028;28.820;2024-02-26T08:22:20;24.47;;;9.30;;
42066;SDS011;27734;47.028;28.820;2024-02-26T08:24:51;27.43;;;9.07;;
42066;SDS011;27734;47.028;28.820;2024-02-26T08:27:22;23.87;;;9.23;;
42066;SDS011;27734;47.028;28.820;2024-02-26T08:29:54;21.43;;;8.70;;
42066;SDS011;27734;47.028;28.820;2024-02-26T08:32:25;26.63;;;8.87;;
42066;SDS011;27734;47.028;28.820;2024-02-26T08:34:56;26.57;;;9.40;;
42066;SDS011;27734;47.028;28.820;2024-02-26T08:37:28;23.63;;;8.90;;
42066;SDS011;27734;47.028;28.820;2024-02-26T08:39:59;28.90;;;8.63;;
42066;SDS011;27734;47.028;28.820;2024-02-26T08:42:32;24.67;;;7.55;;
42066;SDS011;27734;47.028;28.820;2024-02-26T08:45:04;20.30;;;6.33;;
42066;SDS011;27734;47.028;28.820;2024-02-26T08:47:42;20.33;;;8.13;;
42066;SDS011;27734;47.028;28.820;2024-02-26T08:50:15;19.60;;;6.73;;
42066;SDS011;27734;47.028;28.820;2024-02-26T08:52:47;17.70;;;5.65;;
42066;SDS011;27734;47.028;28.820;2024-02-26T08:55:21;18.75;;;6.10;;
42066;SDS011;27734;47.028;28.820;2024-02-26T08:57:53;15.10;;;5.77;;
42066;SDS011;27734;47.028;28.820;2024-02-26T09:00:24;16.87;;;5.60;;
42066;SDS011;27734;47.028;28.820;2024-02-26T09:02:57;14.25;;;5.50;;
42066;SDS011;27734;47.028;28.820;2024-02-26T09:05:29;16.83;;;5.80;;
42066;SDS011;27734;47.028;28.820;2024-02-26T09:08:00;20.60;;;6.53;;
42066;SDS011;27734;47.028;28.820;2024-02-26T09:10:32;20.07;;;5.80;;
42066;SDS011;27734;47.028;28.820;2024-02-26T09:13:04;14.03;;;5.47;;
42066;SDS011;27734;47.028;28.820;2024-02-26T09:15:35;19.23;;;6.57;;
42066;SDS011;27734;47.028;28.820;2024-02-26T09:18:06;15.53;;;6.30;;
42066;SDS011;27734;47.028;28.820;2024-02-26T09:20:38;21.23;;;6.47;;
42066;SDS011;27734;47.028;28.820;2024-02-26T09:23:10;18.97;;;6.17;;
42066;SDS011;27734;47.028;28.820;2024-02-26T09:25:41;15.63;;;5.40;;
42066;SDS011;27734;47.028;28.820;2024-02-26T09:28:13;19.00;;;6.80;;
42066;SDS011;27734;47.028;28.820;2024-02-26T09:30:45;15.60;;;5.37;;
42066;SDS011;27734;47.028;28.820;2024-02-26T09:33:18;18.73;;;6.27;;
42066;SDS011;27734;47.028;28.820;2024-02-26T09:35:50;17.67;;;6.10;;
42066;SDS011;27734;47.028;28.820;2024-02-26T09:38:21;16.47;;;5.40;;
42066;SDS011;27734;47.028;28.820;2024-02-26T09:40:53;14.20;;;5.23;;
42066;SDS011;27734;47.028;28.820;2024-02-26T09:43:24;19.00;;;6.23;;
42066;SDS011;27734;47.028;28.820;2024-02-26T09:46:03;16.90;;;6.50;;
42066;SDS011;27734;47.028;28.820;2024-02-26T09:48:35;19.80;;;6.47;;
42066;SDS011;27734;47.028;28.820;2024-02-26T09:51:08;23.03;;;5.10;;
42066;SDS011;27734;47.028;28.820;2024-02-26T09:53:47;13.40;;;4.63;;
42066;SDS011;27734;47.028;28.820;2024-02-26T09:56:21;11.85;;;4.97;;
42066;SDS011;27734;47.028;28.820;2024-02-26T09:58:54;17.60;;;6.12;;
42066;SDS011;27734;47.028;28.820;2024-02-26T10:04:02;14.20;;;5.10;;
42066;SDS011;27734;47.028;28.820;2024-02-26T10:06:39;11.17;;;4.20;;
42066;SDS011;27734;47.028;28.820;2024-02-26T10:09:12;11.87;;;4.00;;
42066;SDS011;27734;47.028;28.820;2024-02-26T10:11:47;7.80;;;3.87;;
42066;SDS011;27734;47.028;28.820;2024-02-26T10:14:27;11.37;;;4.10;;
42066;SDS011;27734;47.028;28.820;2024-02-26T10:17:01;8.23;;;3.93;;
42066;SDS011;27734;47.028;28.820;2024-02-26T10:19:36;8.60;;;3.70;;
42066;SDS011;27734;47.028;28.820;2024-02-26T10:22:08;12.00;;;4.37;;
42066;SDS011;27734;47.028;28.820;2024-02-26T10:24:39;11.33;;;4.03;;
42066;SDS011;27734;47.028;28.820;2024-02-26T10:27:11;9.80;;;4.37;;
42066;SDS011;27734;47.028;28.820;2024-02-26T10:29:42;12.97;;;4.90;;
42066;SDS011;27734;47.028;28.820;2024-02-26T10:32:21;10.00;;;4.20;;
42066;SDS011;27734;47.028;28.820;2024-02-26T10:34:59;12.57;;;4.43;;
42066;SDS011;27734;47.028;28.820;2024-02-26T10:37:31;9.70;;;4.13;;
42066;SDS011;27734;47.028;28.820;2024-02-26T10:40:04;8.23;;;3.67;;
42066;SDS011;27734;47.028;28.820;2024-02-26T10:42:59;9.00;;;3.60;;
42066;SDS011;27734;47.028;28.820;2024-02-26T10:45:39;12.17;;;3.70;;
42066;SDS011;27734;47.028;28.820;2024-02-26T10:48:12;14.73;;;4.13;;
42066;SDS011;27734;47.028;28.820;2024-02-26T10:51:01;8.20;;;3.63;;
42066;SDS011;27734;47.028;28.820;2024-02-26T10:53:45;8.83;;;3.53;;
42066;SDS011;27734;47.028;28.820;2024-02-26T10:56:22;6.30;;;3.40;;
42066;SDS011;27734;47.028;28.820;2024-02-26T10:58:59;7.83;;;3.83;;
42066;SDS011;27734;47.028;28.820;2024-02-26T11:01:31;12.37;;;4.03;;
42066;SDS011;27734;47.028;28.820;2024-02-26T11:04:06;10.03;;;4.07;;
42066;SDS011;27734;47.028;28.820;2024-02-26T11:06:40;9.50;;;3.30;;
42066;SDS011;27734;47.028;28.820;2024-02-26T11:09:13;7.15;;;3.15;;
42066;SDS011;27734;47.028;28.820;2024-02-26T11:11:50;8.10;;;3.80;;
42066;SDS011;27734;47.028;28.820;2024-02-26T11:14:23;8.03;;;4.23;;
42066;SDS011;27734;47.028;28.820;2024-02-26T11:16:56;10.90;;;3.70;;
42066;SDS011;27734;47.028;28.820;2024-02-26T11:19:29;9.60;;;3.60;;
42066;SDS011;27734;47.028;28.820;2024-02-26T11:22:05;9.37;;;3.63;;
42066;SDS011;27734;47.028;28.820;2024-02-26T11:24:37;8.67;;;4.10;;
42066;SDS011;27734;47.028;28.820;2024-02-26T11:27:11;11.12;;;3.62;;
42066;SDS011;27734;47.028;28.820;2024-02-26T11:29:44;8.50;;;3.87;;
42066;SDS011;27734;47.028;28.820;2024-02-26T11:32:29;11.77;;;3.70;;
42066;SDS011;27734;47.028;28.820;2024-02-26T11:35:03;11.35;;;4.10;;
42066;SDS011;27734;47.028;28.820;2024-02-26T11:37:38;12.23;;;4.17;;
42066;SDS011;27734;47.028;28.820;2024-02-26T11:40:13;12.10;;;4.17;;
42066;SDS011;27734;47.028;28.820;2024-02-26T11:42:49;10.87;;;4.27;;
42066;SDS011;27734;47.028;28.820;2024-02-26T11:48:21;13.20;;;4.20;;
42066;SDS011;27734;47.028;28.820;2024-02-26T11:50:54;16.45;;;4.92;;
42066;SDS011;27734;47.028;28.820;2024-02-26T11:53:28;10.58;;;4.67;;
42066;SDS011;27734;47.028;28.820;2024-02-26T11:56:23;11.53;;;4.30;;
42066;SDS011;27734;47.028;28.820;2024-02-26T11:59:01;10.90;;;4.70;;
42066;SDS011;27734;47.028;28.820;2024-02-26T12:01:41;10.90;;;4.47;;
42066;SDS011;27734;47.028;28.820;2024-02-26T12:04:26;10.53;;;4.27;;
42066;SDS011;27734;47.028;28.820;2024-02-26T12:07:00;22.73;;;5.00;;
42066;SDS011;27734;47.028;28.820;2024-02-26T12:09:34;14.57;;;4.67;;
42066;SDS011;27734;47.028;28.820;2024-02-26T12:12:07;8.93;;;4.30;;
42066;SDS011;27734;47.028;28.820;2024-02-26T12:14:39;13.83;;;4.67;;
42066;SDS011;27734;47.028;28.820;2024-02-26T12:19:54;10.57;;;4.53;;
42066;SDS011;27734;47.028;28.820;2024-02-26T12:22:37;11.30;;;4.50;;
42066;SDS011;27734;47.028;28.820;2024-02-26T12:25:13;11.80;;;4.47;;
42066;SDS011;27734;47.028;28.820;2024-02-26T12:27:45;11.87;;;4.63;;
42066;SDS011;27734;47.028;28.820;2024-02-26T12:30:16;9.13;;;4.30;;
42066;SDS011;27734;47.028;28.820;2024-02-26T12:32:48;10.07;;;4.40;;
42066;SDS011;27734;47.028;28.820;2024-02-26T12:35:20;11.33;;;4.83;;
42066;SDS011;27734;47.028;28.820;2024-02-26T12:37:53;13.80;;;4.93;;
42066;SDS011;27734;47.028;28.820;2024-02-26T12:40:27;12.00;;;4.80;;
42066;SDS011;27734;47.028;28.820;2024-02-26T12:42:59;16.17;;;5.30;;
42066;SDS011;27734;47.028;28.820;2024-02-26T12:45:31;19.33;;;5.50;;
42066;SDS011;27734;47.028;28.820;2024-02-26T12:48:10;10.83;;;4.87;;
42066;SDS011;27734;47.028;28.820;2024-02-26T12:50:45;12.37;;;4.40;;
42066;SDS011;27734;47.028;28.820;2024-02-26T12:53:17;10.27;;;4.40;;
42066;SDS011;27734;47.028;28.820;2024-02-26T12:55:49;15.07;;;4.70;;
42066;SDS011;27734;47.028;28.820;2024-02-26T12:58:21;13.00;;;4.83;;
42066;SDS011;27734;47.028;28.820;2024-02-26T13:00:53;11.20;;;4.50;;
42066;SDS011;27734;47.028;28.820;2024-02-26T13:03:25;16.17;;;5.40;;
42066;SDS011;27734;47.028;28.820;2024-02-26T13:05:58;11.10;;;5.20;;
42066;SDS011;27734;47.028;28.820;2024-02-26T13:08:31;12.77;;;4.70;;
42066;SDS011;27734;47.028;28.820;2024-02-26T13:11:03;12.67;;;5.00;;
42066;SDS011;27734;47.028;28.820;2024-02-26T13:13:34;13.80;;;5.13;;
42066;SDS011;27734;47.028;28.820;2024-02-26T13:16:09;13.93;;;5.00;;
42066;SDS011;27734;47.028;28.820;2024-02-26T13:18:43;12.93;;;4.77;;
42066;SDS011;27734;47.028;28.820;2024-02-26T13:21:15;11.13;;;5.00;;
42066;SDS011;27734;47.028;28.820;2024-02-26T13:23:53;14.47;;;5.10;;
42066;SDS011;27734;47.028;28.820;2024-02-26T13:26:24;14.97;;;4.93;;
42066;SDS011;27734;47.028;28.820;2024-02-26T13:29:02;12.07;;;4.67;;
42066;SDS011;27734;47.028;28.820;2024-02-26T13:31:39;13.40;;;4.90;;
42066;SDS011;27734;47.028;28.820;2024-02-26T13:34:11;14.83;;;5.50;;
42066;SDS011;27734;47.028;28.820;2024-02-26T13:36:54;11.87;;;5.23;;
42066;SDS011;27734;47.028;28.820;2024-02-26T13:39:26;10.20;;;4.40;;
42066;SDS011;27734;47.028;28.820;2024-02-26T13:41:58;11.33;;;4.57;;
42066;SDS011;27734;47.028;28.820;2024-02-26T13:44:30;14.07;;;5.00;;
42066;SDS011;27734;47.028;28.820;2024-02-26T13:47:05;12.20;;;4.57;;
42066;SDS011;27734;47.028;28.820;2024-02-26T13:49:36;13.30;;;4.97;;
42066;SDS011;27734;47.028;28.820;2024-02-26T13:52:11;10.20;;;4.50;;
42066;SDS011;27734;47.028;28.820;2024-02-26T13:54:43;12.82;;;4.90;;
42066;SDS011;27734;47.028;28.820;2024-02-26T13:57:15;11.33;;;4.90;;
42066;SDS011;27734;47.028;28.820;2024-02-26T13:59:47;12.23;;;4.87;;
42066;SDS011;27734;47.028;28.820;2024-02-26T14:02:19;16.13;;;5.00;;
42066;SDS011;27734;47.028;28.820;2024-02-26T14:04:51;10.77;;;4.30;;
42066;SDS011;27734;47.028;28.820;2024-02-26T14:07:22;11.47;;;4.80;;
42066;SDS011;27734;47.028;28.820;2024-02-26T14:09:58;12.67;;;5.17;;
42066;SDS011;27734;47.028;28.820;2024-02-26T14:12:29;12.20;;;4.85;;
42066;SDS011;27734;47.028;28.820;2024-02-26T14:15:01;13.23;;;5.07;;
42066;SDS011;27734;47.028;28.820;2024-02-26T14:17:33;11.70;;;4.83;;
42066;SDS011;27734;47.028;28.820;2024-02-26T14:20:07;14.45;;;5.20;;
42066;SDS011;27734;47.028;28.820;2024-02-26T14:22:39;13.13;;;5.37;;
42066;SDS011;27734;47.028;28.820;2024-02-26T14:25:11;15.03;;;5.67;;
42066;SDS011;27734;47.028;28.820;2024-02-26T14:27:42;10.73;;;4.90;;
42066;SDS011;27734;47.028;28.820;2024-02-26T14:30:16;14.63;;;5.27;;
42066;SDS011;27734;47.028;28.820;2024-02-26T14:32:47;11.73;;;5.10;;
42066;SDS011;27734;47.028;28.820;2024-02-26T14:35:27;11.80;;;5.30;;
42066;SDS011;27734;47.028;28.820;2024-02-26T14:37:58;12.50;;;4.97;;
42066;SDS011;27734;47.028;28.820;2024-02-26T14:40:29;14.57;;;5.53;;
42066;SDS011;27734;47.028;28.820;2024-02-26T14:43:05;13.60;;;5.20;;
42066;SDS011;27734;47.028;28.820;2024-02-26T14:45:38;12.20;;;4.80;;
42066;SDS011;27734;47.028;28.820;2024-02-26T14:48:09;15.30;;;5.10;;
42066;SDS011;27734;47.028;28.820;2024-02-26T14:50:41;12.13;;;4.40;;
42066;SDS011;27734;47.028;28.820;2024-02-26T14:53:12;15.50;;;4.80;;
42066;SDS011;27734;47.028;28.820;2024-02-26T14:55:44;15.10;;;4.50;;
42066;SDS011;27734;47.028;28.820;2024-02-26T14:58:15;12.50;;;4.60;;
42066;SDS011;27734;47.028;28.820;2024-02-26T15:00:47;12.03;;;4.43;;
42066;SDS011;27734;47.028;28.820;2024-02-26T15:03:19;10.43;;;4.63;;